sensor_id;sensor_type;location;lat;lon;timestamp;P1;durP1;ratioP1;P2;durP2;ratioP2
42858;SDS011;28505;56.970;40.998;2022-12-19T00:01:24;5.80;;;3.33;;
42858;SDS011;28505;56.970;40.998;2022-12-19T00:06:50;9.75;;;4.20;;
42858;SDS011;28505;56.970;40.998;2022-12-19T00:12:12;11.32;;;2.60;;
42858;SDS011;28505;56.970;40.998;2022-12-19T00:17:39;4.50;;;3.22;;
42858;SDS011;28505;56.970;40.998;2022-12-19T00:23:00;4.32;;;3.95;;
42858;SDS011;28505;56.970;40.998;2022-12-19T00:28:23;3.58;;;3.28;;
42858;SDS011;28505;56.970;40.998;2022-12-19T00:33:45;6.53;;;5.97;;
42858;SDS011;28505;56.970;40.998;2022-12-19T00:39:07;7.35;;;3.92;;
42858;SDS011;28505;56.970;40.998;2022-12-19T00:44:30;2.50;;;2.30;;
42858;SDS011;28505;56.970;40.998;2022-12-19T00:49:53;2.08;;;1.88;;
42858;SDS011;28505;56.970;40.998;2022-12-19T00:55:15;5.20;;;3.30;;
42858;SDS011;28505;56.970;40.998;2022-12-19T01:00:39;7.63;;;3.00;;
42858;SDS011;28505;56.970;40.998;2022-12-19T01:06:02;5.88;;;3.08;;
42858;SDS011;28505;56.970;40.998;2022-12-19T01:11:25;4.93;;;2.50;;
42858;SDS011;28505;56.970;40.998;2022-12-19T01:17:06;2.45;;;1.85;;
42858;SDS011;28505;56.970;40.998;2022-12-19T01:22:27;3.92;;;2.35;;
42858;SDS011;28505;56.970;40.998;2022-12-19T01:27:49;2.17;;;1.85;;
42858;SDS011;28505;56.970;40.998;2022-12-19T01:33:15;2.15;;;1.95;;
42858;SDS011;28505;56.970;40.998;2022-12-19T01:38:40;2.67;;;2.47;;
42858;SDS011;28505;56.970;40.998;2022-12-19T01:44:03;1.77;;;1.60;;
42858;SDS011;28505;56.970;40.998;2022-12-19T01:49:32;5.18;;;2.92;;
42858;SDS011;28505;56.970;40.998;2022-12-19T01:54:58;2.22;;;2.03;;
42858;SDS011;28505;56.970;40.998;2022-12-19T02:00:22;2.72;;;2.30;;
42858;SDS011;28505;56.970;40.998;2022-12-19T02:05:44;1.73;;;1.63;;
42858;SDS011;28505;56.970;40.998;2022-12-19T02:11:07;1.70;;;1.55;;
42858;SDS011;28505;56.970;40.998;2022-12-19T02:28:18;1.70;;;1.58;;
42858;SDS011;28505;56.970;40.998;2022-12-19T02:33:54;2.00;;;1.73;;
42858;SDS011;28505;56.970;40.998;2022-12-19T02:45:11;1.70;;;1.50;;
42858;SDS011;28505;56.970;40.998;2022-12-19T02:50:46;1.70;;;1.50;;
42858;SDS011;28505;56.970;40.998;2022-12-19T03:01:46;1.70;;;1.60;;
42858;SDS011;28505;56.970;40.998;2022-12-19T03:07:25;1.70;;;1.50;;
42858;SDS011;28505;56.970;40.998;2022-12-19T03:13:18;1.98;;;1.77;;
42858;SDS011;28505;56.970;40.998;2022-12-19T03:18:45;1.70;;;1.50;;
42858;SDS011;28505;56.970;40.998;2022-12-19T03:24:08;1.70;;;1.50;;
42858;SDS011;28505;56.970;40.998;2022-12-19T03:35:10;1.70;;;1.60;;
42858;SDS011;28505;56.970;40.998;2022-12-19T03:40:39;2.40;;;1.88;;
42858;SDS011;28505;56.970;40.998;2022-12-19T03:46:07;1.85;;;1.65;;
42858;SDS011;28505;56.970;40.998;2022-12-19T03:57:22;1.70;;;1.55;;
42858;SDS011;28505;56.970;40.998;2022-12-19T04:02:50;1.95;;;1.80;;
42858;SDS011;28505;56.970;40.998;2022-12-19T04:08:13;2.45;;;2.25;;
42858;SDS011;28505;56.970;40.998;2022-12-19T04:13:37;1.70;;;1.50;;
42858;SDS011;28505;56.970;40.998;2022-12-19T04:19:06;1.70;;;1.60;;
42858;SDS011;28505;56.970;40.998;2022-12-19T04:24:36;2.72;;;2.53;;
42858;SDS011;28505;56.970;40.998;2022-12-19T04:30:01;1.70;;;1.60;;
42858;SDS011;28505;56.970;40.998;2022-12-19T04:35:29;1.95;;;1.75;;
42858;SDS011;28505;56.970;40.998;2022-12-19T04:40:54;1.98;;;1.77;;
42858;SDS011;28505;56.970;40.998;2022-12-19T04:46:17;1.70;;;1.60;;
42858;SDS011;28505;56.970;40.998;2022-12-19T04:51:39;1.70;;;1.60;;
42858;SDS011;28505;56.970;40.998;2022-12-19T04:57:02;1.70;;;1.60;;
42858;SDS011;28505;56.970;40.998;2022-12-19T05:02:24;2.03;;;1.83;;
42858;SDS011;28505;56.970;40.998;2022-12-19T05:07:49;2.08;;;1.88;;
42858;SDS011;28505;56.970;40.998;2022-12-19T05:13:11;14.85;;;3.40;;
42858;SDS011;28505;56.970;40.998;2022-12-19T05:18:34;1.85;;;1.67;;
42858;SDS011;28505;56.970;40.998;2022-12-19T05:24:03;2.70;;;2.50;;
42858;SDS011;28505;56.970;40.998;2022-12-19T05:29:25;2.05;;;1.80;;
42858;SDS011;28505;56.970;40.998;2022-12-19T05:34:47;1.70;;;1.60;;
42858;SDS011;28505;56.970;40.998;2022-12-19T05:40:15;1.70;;;1.60;;
42858;SDS011;28505;56.970;40.998;2022-12-19T05:45:40;1.70;;;1.60;;
42858;SDS011;28505;56.970;40.998;2022-12-19T05:51:03;2.10;;;1.90;;
42858;SDS011;28505;56.970;40.998;2022-12-19T05:56:26;1.70;;;1.60;;
42858;SDS011;28505;56.970;40.998;2022-12-19T06:01:50;2.30;;;2.00;;
42858;SDS011;28505;56.970;40.998;2022-12-19T06:07:15;1.70;;;1.50;;
42858;SDS011;28505;56.970;40.998;2022-12-19T06:12:41;2.17;;;1.98;;
42858;SDS011;28505;56.970;40.998;2022-12-19T06:18:06;3.17;;;2.97;;
42858;SDS011;28505;56.970;40.998;2022-12-19T06:23:30;1.70;;;1.50;;
42858;SDS011;28505;56.970;40.998;2022-12-19T06:28:53;1.90;;;1.70;;
42858;SDS011;28505;56.970;40.998;2022-12-19T06:34:16;2.20;;;2.00;;
42858;SDS011;28505;56.970;40.998;2022-12-19T06:39:59;2.78;;;2.58;;
42858;SDS011;28505;56.970;40.998;2022-12-19T06:45:23;1.60;;;1.35;;
42858;SDS011;28505;56.970;40.998;2022-12-19T06:50:45;4.22;;;2.78;;
42858;SDS011;28505;56.970;40.998;2022-12-19T06:56:07;1.60;;;1.40;;
42858;SDS011;28505;56.970;40.998;2022-12-19T07:06:51;1.60;;;1.42;;
42858;SDS011;28505;56.970;40.998;2022-12-19T07:12:13;2.95;;;1.95;;
42858;SDS011;28505;56.970;40.998;2022-12-19T07:17:35;6.50;;;3.95;;
42858;SDS011;28505;56.970;40.998;2022-12-19T07:22:57;8.32;;;4.53;;
42858;SDS011;28505;56.970;40.998;2022-12-19T07:28:23;3.17;;;2.60;;
42858;SDS011;28505;56.970;40.998;2022-12-19T07:33:45;2.55;;;2.30;;
42858;SDS011;28505;56.970;40.998;2022-12-19T07:39:08;23.58;;;5.22;;
42858;SDS011;28505;56.970;40.998;2022-12-19T07:44:30;6.38;;;2.25;;
42858;SDS011;28505;56.970;40.998;2022-12-19T07:49:52;4.22;;;3.50;;
42858;SDS011;28505;56.970;40.998;2022-12-19T07:55:17;2.47;;;2.03;;
42858;SDS011;28505;56.970;40.998;2022-12-19T08:00:39;5.50;;;3.13;;
42858;SDS011;28505;56.970;40.998;2022-12-19T08:06:03;2.05;;;1.85;;
42858;SDS011;28505;56.970;40.998;2022-12-19T08:11:27;3.47;;;3.15;;
42858;SDS011;28505;56.970;40.998;2022-12-19T08:16:50;5.38;;;3.03;;
42858;SDS011;28505;56.970;40.998;2022-12-19T08:22:35;2.47;;;2.27;;
42858;SDS011;28505;56.970;40.998;2022-12-19T08:33:53;9.23;;;3.45;;
42858;SDS011;28505;56.970;40.998;2022-12-19T08:39:16;2.83;;;2.60;;
42858;SDS011;28505;56.970;40.998;2022-12-19T08:44:38;6.22;;;2.95;;
42858;SDS011;28505;56.970;40.998;2022-12-19T08:50:00;2.72;;;2.42;;
42858;SDS011;28505;56.970;40.998;2022-12-19T08:55:23;3.38;;;3.08;;
42858;SDS011;28505;56.970;40.998;2022-12-19T09:00:48;7.88;;;4.25;;
42858;SDS011;28505;56.970;40.998;2022-12-19T09:06:17;1.95;;;1.73;;
42858;SDS011;28505;56.970;40.998;2022-12-19T09:11:40;4.57;;;3.22;;
42858;SDS011;28505;56.970;40.998;2022-12-19T09:17:07;1.50;;;1.30;;
42858;SDS011;28505;56.970;40.998;2022-12-19T09:22:33;17.50;;;4.97;;
42858;SDS011;28505;56.970;40.998;2022-12-19T09:27:55;2.95;;;2.30;;
42858;SDS011;28505;56.970;40.998;2022-12-19T09:33:37;6.35;;;3.67;;
42858;SDS011;28505;56.970;40.998;2022-12-19T09:39:03;12.40;;;3.70;;
42858;SDS011;28505;56.970;40.998;2022-12-19T09:44:39;9.18;;;4.47;;
42858;SDS011;28505;56.970;40.998;2022-12-19T09:50:23;2.83;;;2.55;;
42858;SDS011;28505;56.970;40.998;2022-12-19T09:55:53;2.10;;;1.90;;
42858;SDS011;28505;56.970;40.998;2022-12-19T10:01:23;1.55;;;1.20;;
42858;SDS011;28505;56.970;40.998;2022-12-19T10:06:51;1.88;;;1.67;;
42858;SDS011;28505;56.970;40.998;2022-12-19T10:12:41;1.60;;;1.40;;
42858;SDS011;28505;56.970;40.998;2022-12-19T10:18:29;1.60;;;1.35;;
42858;SDS011;28505;56.970;40.998;2022-12-19T10:30:30;1.60;;;1.33;;
42858;SDS011;28505;56.970;40.998;2022-12-19T10:35:58;4.03;;;3.15;;
42858;SDS011;28505;56.970;40.998;2022-12-19T10:41:32;7.72;;;6.35;;
42858;SDS011;28505;56.970;40.998;2022-12-19T10:47:03;12.30;;;4.78;;
42858;SDS011;28505;56.970;40.998;2022-12-19T10:52:45;2.97;;;2.22;;
42858;SDS011;28505;56.970;40.998;2022-12-19T11:09:52;1.40;;;1.10;;
42858;SDS011;28505;56.970;40.998;2022-12-19T11:15:34;2.63;;;1.83;;
42858;SDS011;28505;56.970;40.998;2022-12-19T11:21:16;5.78;;;2.60;;
42858;SDS011;28505;56.970;40.998;2022-12-19T11:27:29;2.08;;;1.75;;
42858;SDS011;28505;56.970;40.998;2022-12-19T11:33:23;1.40;;;1.00;;
42858;SDS011;28505;56.970;40.998;2022-12-19T11:38:47;1.40;;;1.10;;
42858;SDS011;28505;56.970;40.998;2022-12-19T11:49:54;2.95;;;1.90;;
42858;SDS011;28505;56.970;40.998;2022-12-19T11:55:27;12.73;;;3.45;;
42858;SDS011;28505;56.970;40.998;2022-12-19T12:06:48;1.40;;;1.00;;
42858;SDS011;28505;56.970;40.998;2022-12-19T12:24:12;4.13;;;1.52;;
42858;SDS011;28505;56.970;40.998;2022-12-19T12:30:15;3.95;;;3.65;;
42858;SDS011;28505;56.970;40.998;2022-12-19T12:36:01;2.55;;;2.35;;
42858;SDS011;28505;56.970;40.998;2022-12-19T12:47:39;2.45;;;2.08;;
42858;SDS011;28505;56.970;40.998;2022-12-19T12:53:04;1.50;;;1.10;;
42858;SDS011;28505;56.970;40.998;2022-12-19T13:09:36;1.40;;;1.00;;
42858;SDS011;28505;56.970;40.998;2022-12-19T13:20:45;2.10;;;1.83;;
42858;SDS011;28505;56.970;40.998;2022-12-19T13:26:22;1.60;;;1.30;;
42858;SDS011;28505;56.970;40.998;2022-12-19T13:32:10;1.40;;;1.02;;
42858;SDS011;28505;56.970;40.998;2022-12-19T13:43:42;24.77;;;3.83;;
42858;SDS011;28505;56.970;40.998;2022-12-19T13:49:23;1.50;;;1.10;;
42858;SDS011;28505;56.970;40.998;2022-12-19T13:54:55;2.45;;;2.22;;
42858;SDS011;28505;56.970;40.998;2022-12-19T14:00:21;3.55;;;2.22;;
42858;SDS011;28505;56.970;40.998;2022-12-19T14:05:52;2.58;;;1.65;;
42858;SDS011;28505;56.970;40.998;2022-12-19T14:11:39;4.13;;;3.83;;
42858;SDS011;28505;56.970;40.998;2022-12-19T14:17:23;1.90;;;1.70;;
42858;SDS011;28505;56.970;40.998;2022-12-19T14:22:46;4.05;;;2.75;;
42858;SDS011;28505;56.970;40.998;2022-12-19T14:28:14;3.72;;;3.42;;
42858;SDS011;28505;56.970;40.998;2022-12-19T14:33:50;2.15;;;1.95;;
42858;SDS011;28505;56.970;40.998;2022-12-19T14:39:34;3.45;;;2.72;;
42858;SDS011;28505;56.970;40.998;2022-12-19T14:44:57;1.50;;;1.10;;
42858;SDS011;28505;56.970;40.998;2022-12-19T14:50:39;1.60;;;1.27;;
42858;SDS011;28505;56.970;40.998;2022-12-19T14:56:23;1.40;;;0.90;;
42858;SDS011;28505;56.970;40.998;2022-12-19T15:07:27;3.58;;;1.75;;
42858;SDS011;28505;56.970;40.998;2022-12-19T15:18:56;1.40;;;0.90;;
42858;SDS011;28505;56.970;40.998;2022-12-19T15:24:19;1.40;;;0.90;;
42858;SDS011;28505;56.970;40.998;2022-12-19T15:29:46;1.40;;;0.90;;
42858;SDS011;28505;56.970;40.998;2022-12-19T15:35:13;1.40;;;0.90;;
42858;SDS011;28505;56.970;40.998;2022-12-19T15:40:37;1.40;;;0.90;;
42858;SDS011;28505;56.970;40.998;2022-12-19T15:46:03;1.58;;;1.25;;
42858;SDS011;28505;56.970;40.998;2022-12-19T15:51:26;1.40;;;0.90;;
42858;SDS011;28505;56.970;40.998;2022-12-19T15:56:50;1.70;;;1.33;;
42858;SDS011;28505;56.970;40.998;2022-12-19T16:02:20;1.40;;;0.90;;
42858;SDS011;28505;56.970;40.998;2022-12-19T16:07:45;1.30;;;0.80;;
42858;SDS011;28505;56.970;40.998;2022-12-19T16:13:18;1.50;;;0.90;;
42858;SDS011;28505;56.970;40.998;2022-12-19T16:18:44;1.40;;;0.85;;
42858;SDS011;28505;56.970;40.998;2022-12-19T16:24:09;1.42;;;0.93;;
42858;SDS011;28505;56.970;40.998;2022-12-19T16:29:57;1.33;;;0.90;;
42858;SDS011;28505;56.970;40.998;2022-12-19T16:35:30;1.40;;;0.90;;
42858;SDS011;28505;56.970;40.998;2022-12-19T16:41:23;1.40;;;0.80;;
42858;SDS011;28505;56.970;40.998;2022-12-19T16:46:46;2.85;;;0.98;;
42858;SDS011;28505;56.970;40.998;2022-12-19T16:52:11;1.75;;;1.23;;
42858;SDS011;28505;56.970;40.998;2022-12-19T16:57:33;1.30;;;0.80;;
42858;SDS011;28505;56.970;40.998;2022-12-19T17:03:01;1.30;;;0.80;;
42858;SDS011;28505;56.970;40.998;2022-12-19T17:08:28;1.42;;;0.98;;
42858;SDS011;28505;56.970;40.998;2022-12-19T17:13:52;1.40;;;0.90;;
42858;SDS011;28505;56.970;40.998;2022-12-19T17:19:31;2.38;;;0.98;;
42858;SDS011;28505;56.970;40.998;2022-12-19T17:24:59;1.40;;;0.90;;
42858;SDS011;28505;56.970;40.998;2022-12-19T17:30:22;2.00;;;1.02;;
42858;SDS011;28505;56.970;40.998;2022-12-19T17:35:44;1.30;;;0.82;;
42858;SDS011;28505;56.970;40.998;2022-12-19T17:41:14;2.85;;;1.50;;
42858;SDS011;28505;56.970;40.998;2022-12-19T17:46:39;1.42;;;0.90;;
42858;SDS011;28505;56.970;40.998;2022-12-19T17:52:02;2.63;;;1.55;;
42858;SDS011;28505;56.970;40.998;2022-12-19T17:57:25;1.20;;;0.77;;
42858;SDS011;28505;56.970;40.998;2022-12-19T18:02:48;1.40;;;1.00;;
42858;SDS011;28505;56.970;40.998;2022-12-19T18:08:34;1.20;;;0.80;;
42858;SDS011;28505;56.970;40.998;2022-12-19T18:13:56;1.38;;;0.90;;
42858;SDS011;28505;56.970;40.998;2022-12-19T18:19:19;1.20;;;0.80;;
42858;SDS011;28505;56.970;40.998;2022-12-19T18:24:46;1.38;;;0.90;;
42858;SDS011;28505;56.970;40.998;2022-12-19T18:30:09;1.15;;;0.82;;
42858;SDS011;28505;56.970;40.998;2022-12-19T18:35:38;1.20;;;0.80;;
42858;SDS011;28505;56.970;40.998;2022-12-19T18:41:02;1.17;;;0.80;;
42858;SDS011;28505;56.970;40.998;2022-12-19T18:46:30;1.33;;;0.95;;
42858;SDS011;28505;56.970;40.998;2022-12-19T18:51:53;1.27;;;0.85;;
42858;SDS011;28505;56.970;40.998;2022-12-19T18:57:15;1.15;;;0.80;;
42858;SDS011;28505;56.970;40.998;2022-12-19T19:02:38;1.55;;;1.08;;
42858;SDS011;28505;56.970;40.998;2022-12-19T19:13:54;1.00;;;0.70;;
42858;SDS011;28505;56.970;40.998;2022-12-19T19:19:17;1.10;;;0.80;;
42858;SDS011;28505;56.970;40.998;2022-12-19T19:24:39;1.25;;;1.08;;
42858;SDS011;28505;56.970;40.998;2022-12-19T19:30:02;1.10;;;0.80;;
42858;SDS011;28505;56.970;40.998;2022-12-19T19:35:24;1.33;;;1.05;;
42858;SDS011;28505;56.970;40.998;2022-12-19T19:40:47;1.02;;;0.70;;
42858;SDS011;28505;56.970;40.998;2022-12-19T19:46:09;1.70;;;1.42;;
42858;SDS011;28505;56.970;40.998;2022-12-19T19:51:31;1.00;;;0.70;;
42858;SDS011;28505;56.970;40.998;2022-12-19T19:56:53;1.95;;;1.10;;
42858;SDS011;28505;56.970;40.998;2022-12-19T20:02:15;2.45;;;1.95;;
42858;SDS011;28505;56.970;40.998;2022-12-19T20:07:38;1.00;;;0.70;;
42858;SDS011;28505;56.970;40.998;2022-12-19T20:13:00;1.30;;;1.00;;
42858;SDS011;28505;56.970;40.998;2022-12-19T20:18:22;0.90;;;0.70;;
42858;SDS011;28505;56.970;40.998;2022-12-19T20:23:44;1.08;;;0.80;;
42858;SDS011;28505;56.970;40.998;2022-12-19T20:29:06;1.00;;;0.70;;
42858;SDS011;28505;56.970;40.998;2022-12-19T20:34:29;1.27;;;0.88;;
42858;SDS011;28505;56.970;40.998;2022-12-19T20:39:51;2.25;;;1.25;;
42858;SDS011;28505;56.970;40.998;2022-12-19T20:45:13;1.00;;;0.70;;
42858;SDS011;28505;56.970;40.998;2022-12-19T20:50:35;1.00;;;0.68;;
42858;SDS011;28505;56.970;40.998;2022-12-19T20:56:03;1.00;;;0.70;;
42858;SDS011;28505;56.970;40.998;2022-12-19T21:01:26;1.20;;;0.90;;
42858;SDS011;28505;56.970;40.998;2022-12-19T21:06:48;1.70;;;1.10;;
42858;SDS011;28505;56.970;40.998;2022-12-19T21:12:11;1.05;;;0.73;;
42858;SDS011;28505;56.970;40.998;2022-12-19T21:17:33;1.00;;;0.70;;
42858;SDS011;28505;56.970;40.998;2022-12-19T21:28:27;0.90;;;0.65;;
42858;SDS011;28505;56.970;40.998;2022-12-19T21:33:52;1.88;;;1.10;;
42858;SDS011;28505;56.970;40.998;2022-12-19T21:39:16;1.25;;;0.98;;
42858;SDS011;28505;56.970;40.998;2022-12-19T21:44:38;1.48;;;0.80;;
42858;SDS011;28505;56.970;40.998;2022-12-19T21:50:00;1.20;;;0.80;;
42858;SDS011;28505;56.970;40.998;2022-12-19T21:55:22;1.10;;;0.80;;
42858;SDS011;28505;56.970;40.998;2022-12-19T22:00:45;1.10;;;0.80;;
42858;SDS011;28505;56.970;40.998;2022-12-19T22:06:11;0.90;;;0.63;;
42858;SDS011;28505;56.970;40.998;2022-12-19T22:11:41;1.02;;;0.77;;
42858;SDS011;28505;56.970;40.998;2022-12-19T22:17:03;1.08;;;0.80;;
42858;SDS011;28505;56.970;40.998;2022-12-19T22:22:26;1.27;;;0.85;;
42858;SDS011;28505;56.970;40.998;2022-12-19T22:27:48;1.52;;;0.80;;
42858;SDS011;28505;56.970;40.998;2022-12-19T22:33:10;1.00;;;0.70;;
42858;SDS011;28505;56.970;40.998;2022-12-19T22:38:33;1.02;;;0.70;;
42858;SDS011;28505;56.970;40.998;2022-12-19T22:43:55;0.90;;;0.70;;
42858;SDS011;28505;56.970;40.998;2022-12-19T22:49:17;1.00;;;0.70;;
42858;SDS011;28505;56.970;40.998;2022-12-19T22:54:39;1.27;;;0.90;;
42858;SDS011;28505;56.970;40.998;2022-12-19T23:00:03;3.55;;;1.88;;
42858;SDS011;28505;56.970;40.998;2022-12-19T23:05:30;1.10;;;0.70;;
42858;SDS011;28505;56.970;40.998;2022-12-19T23:10:52;1.05;;;0.70;;
42858;SDS011;28505;56.970;40.998;2022-12-19T23:16:14;1.00;;;0.70;;
42858;SDS011;28505;56.970;40.998;2022-12-19T23:21:37;1.10;;;0.80;;
42858;SDS011;28505;56.970;40.998;2022-12-19T23:26:59;1.00;;;0.70;;
42858;SDS011;28505;56.970;40.998;2022-12-19T23:32:24;1.42;;;0.90;;
42858;SDS011;28505;56.970;40.998;2022-12-19T23:37:49;1.00;;;0.70;;
42858;SDS011;28505;56.970;40.998;2022-12-19T23:43:12;1.00;;;0.70;;
42858;SDS011;28505;56.970;40.998;2022-12-19T23:48:34;1.00;;;0.70;;
42858;SDS011;28505;56.970;40.998;2022-12-19T23:53:58;1.08;;;0.82;;
42858;SDS011;28505;56.970;40.998;2022-12-19T23:59:20;1.10;;;0.70;;
